Flight Track Log - Related Links

Times and Time Zones

All times are in EDT time to prevent confusion due to time zone crossing. See the AAY829 flight status page for this flight to view local times or setup timezone preferences in your user account.

Time Position Orientation Groundspeed Altitude Reporting Facility
EDT Latitude Longitude Course Direction KTS MPH feet Rate Location/Type
Fri 02:44:48 PM 34.8308 -82.2422 180° South 198 228 3,200  Level Atlanta Center
Fri 02:45:48 PM 34.7636 -82.2183 164° South 266 306 5,100 2,550 Climbing Atlanta Center
Fri 02:46:48 PM 34.6881 -82.1872 161° South 282 325 8,300 2,800 Climbing Atlanta Center
Fri 02:47:48 PM 34.6106 -82.1533 160° South 287 330 10,700 1,850 Climbing Atlanta Center
Fri 02:48:48 PM 34.5183 -82.1328 170° South 304 350 12,000 1,800 Climbing Atlanta Center
Fri 02:49:48 PM 34.4203 -82.1375 182° South 337 388 14,300 2,050 Climbing Atlanta Center
Fri 02:50:00 PM 34.2343 -82.2664 180° South  Level Estimated
Fri 02:50:48 PM 34.3139 -82.1425 182° South 362 417 16,100  Level Atlanta Center
Fri 02:51:48 PM 34.2097 -82.1447 181° South 376 433 17,000 750 Climbing Atlanta Center
Fri 02:52:48 PM 34.1033 -82.1497 182° South 386 444 17,600 1,150 Climbing Atlanta Center
Fri 02:53:48 PM 33.9928 -82.1522 181° South 386 444 19,300 1,750 Climbing Atlanta Center
Fri 02:54:48 PM 33.8819 -82.1547 181° South 392 451 21,100 1,700 Climbing Atlanta Center
Fri 02:55:48 PM 33.7653 -82.1597 182° South 405 466 22,700 1,250 Climbing Atlanta Center
Fri 02:56:48 PM 33.6506 -82.1697 184° South 417 480 23,600 1,300 Climbing Atlanta Center
Fri 02:57:48 PM 33.5339 -82.1897 188° South 422 486 25,300 1,750 Climbing Atlanta Center
Fri 02:58:48 PM 33.4194 -82.2094 188° South 422 486 27,100 1,450 Climbing Atlanta Center
Fri 02:59:48 PM 33.3069 -82.2267 187° South 422 486 28,200 750 Climbing Atlanta Center
Fri 03:00:48 PM 33.1842 -82.2467 188° South 429 494 28,600 550 Climbing Atlanta Center
Fri 03:01:48 PM 33.0592 -82.2667 188° South 442 509 29,300 900 Climbing Atlanta Center
Fri 03:02:48 PM 32.9281 -82.2892 188° South 463 533 30,400 1,000 Climbing Atlanta Center
Fri 03:03:48 PM 32.7989 -82.3114 188° South 475 547 31,300 1,100 Climbing Atlanta Center
Fri 03:04:48 PM 32.6656 -82.3289 186° South 480 552 32,600 1,350 Climbing Atlanta Center
Fri 03:05:48 PM 32.5344 -82.3511 188° South 480 552 34,000 488 Climbing Atlanta Center
Fri 03:07:40 PM 32.2992 -82.3886 188° South 455 524 34,000  Level Jacksonville Center
Fri 03:08:40 PM 32.1697 -82.4092 188° South 461 531 34,000  Level Jacksonville Center
Fri 03:09:40 PM 32.0406 -82.4294 188° South 467 537 34,000  Level Jacksonville Center
Fri 03:10:40 PM 31.9069 -82.4519 188° South 467 537 34,000  Level Jacksonville Center
Fri 03:11:41 PM 31.7794 -82.4697 187° South 467 537 34,000  Level Jacksonville Center
Fri 03:12:40 PM 31.6544 -82.4900 188° South 467 537 34,000  Level Jacksonville Center
Fri 03:13:40 PM 31.5250 -82.5075 187° South 467 537 34,000  Level Jacksonville Center
Fri 03:14:40 PM 31.3997 -82.5128 182° South 467 537 34,000  Level Jacksonville Center
Fri 03:15:40 PM 31.2911 -82.5206 184° South 459 528 34,000  Level Jacksonville Center
Fri 03:21:38 PM 30.5529 -82.5910 184° South 434 499 34,000  Level FlightAware ADS-B
Fri 03:23:53 PM 30.2816 -82.6128 173° South 438 504 34,000 -77 Level FlightAware ADS-B
Fri 03:24:13 PM 30.2402 -82.6010 161° South 438 504 33,800 -2,100 Descending FlightAware ADS-B
Fri 03:24:53 PM 30.1618 -82.5711 162° South 444 511 31,900 -2,100 Descending FlightAware ADS-B
Fri 03:25:53 PM 30.0986 -82.5477 162° South 444 511 30,300 -1,307 Descending FlightAware ADS-B
Fri 03:26:34 PM 29.9692 -82.5055 178° South 433 498 29,700 -889 Descending FlightAware ADS-B
Fri 03:27:14 PM 29.8886 -82.5125 188° South 434 499 29,100 -960 Descending FlightAware ADS-B
Fri 03:28:14 PM 29.7697 -82.5301 187° South 425 489 28,100 -990 Descending FlightAware ADS-B
Fri 03:28:51 PM 29.7007 -82.5402 187° South 421 484 27,500 -846 Descending FlightAware ADS-B
Fri 03:29:32 PM 29.6139 -82.5527 185° South 415 478 27,000 -607 Descending FlightAware ADS-B
Fri 03:30:20 PM 29.5280 -82.5610 185° South 410 472 26,600 -1,317 Descending FlightAware ADS-B
Fri 03:30:54 PM 29.4583 -82.5686 185° South 404 465 25,200 -1,950 Descending FlightAware ADS-B
Fri 03:31:40 PM 29.3914 -82.5756 185° South 422 486 24,000 -1,811 Descending Jacksonville Center
Fri 03:32:40 PM 29.2828 -82.5831 183° South 406 467 22,000 -1,567 Descending Jacksonville Center
Fri 03:38:45 PM 28.7820 -82.3234 126° Southeast 327 376 12,900 -1,162 Descending FlightAware ADS-B
Fri 03:40:30 PM 28.6578 -82.2570 126° Southeast 327 376 12,900  Level FlightAware ADS-B
Fri 03:40:59 PM 28.6160 -82.2560 179° South 304 350 12,900  Level FlightAware ADS-B
Fri 03:41:46 PM 28.5516 -82.2544 179° South 304 350 12,900 -1,084 Level FlightAware ADS-B
Fri 03:43:34 PM 28.4399 -82.3475 247° West 285 328 10,100 -1,430 Descending FlightAware ADS-B
Fri 03:44:38 PM 28.4063 -82.4368 247° West 282 325 8,800 -1,385 Descending FlightAware ADS-B
Fri 03:46:49 PM 28.3407 -82.6100 247° West 270 311 5,600 -1,458 Descending FlightAware ADS-B
Fri 03:47:35 PM 28.3167 -82.6667 247° West 272 313 4,500 -1,393 Descending Tampa TRACON
Fri 03:48:41 PM 28.2333 -82.6500 170° South 267 307 3,000 -1,091 Descending Tampa TRACON
Fri 03:49:36 PM 28.1667 -82.6500 180° South 265 305 2,300 -678 Descending Tampa TRACON
Fri 03:50:36 PM 28.1000 -82.6500 180° South 229 264 1,700 -350 Descending Tampa TRACON
Fri 03:51:36 PM 28.0333 -82.6500 180° South 197 227 1,600 -202 Descending Tampa TRACON
Fri 03:52:35 PM 28.0000 -82.6667 204° Southwest 159 183 1,300 -500 Descending Tampa TRACON
Fri 03:53:36 PM 27.9500 -82.7000 210° Southwest 140 161 600 -689 Descending Tampa TRACON

Login

Don't have an account? Register now (free) for customized features, flight alerts, and more!